Terminal Aerodrome Forecast
Issued by NWS

Home | Current Version | Previous Version | Text Only | Print | Product List | Glossary On
Versions: 1 2 3 4 5 6 7 8 9 10 11 12 13 14 15 16 17 18 19 20 21 22 23 24 25 26 27 28 29 30 31 32 33
000
FTAK31 PAFA 061138
TAFAOM
TAF
PAOM 061138Z 0612/0712 07012KT P6SM VCSH BKN060 OVC100
     FM061500 10014KT P6SM VCSH OVC050
     FM062100 11017KT P6SM -SHRA SCT025 OVC050
     FM070400 15014KT 4SM -RA BR SCT014 BKN025 OVC050=

USA.gov is the U.S. government's official web portal to all federal, state and local government web resources and services.